createdAt,value
2022-07-27T00:01:06.969Z,20.15
2022-07-27T00:03:36.860Z,20.04
2022-07-27T00:06:05.040Z,20.11
2022-07-27T00:08:33.519Z,20.18
2022-07-27T00:11:01.685Z,20.25
2022-07-27T00:13:29.812Z,20.30
2022-07-27T00:16:00.002Z,20.31
2022-07-27T00:18:28.841Z,20.31
2022-07-27T00:20:58.702Z,20.23
2022-07-27T00:23:26.785Z,20.23
2022-07-27T00:25:54.770Z,20.25
2022-07-27T00:28:23.150Z,20.26
2022-07-27T00:30:51.219Z,20.31
2022-07-27T00:33:19.278Z,20.31
2022-07-27T00:35:47.337Z,20.27
2022-07-27T00:38:17.166Z,20.27
2022-07-27T00:40:45.312Z,20.31
2022-07-27T00:43:13.964Z,20.25
2022-07-27T00:45:42.014Z,20.24
2022-07-27T00:48:10.018Z,20.06
2022-07-27T00:50:39.450Z,20.13
2022-07-27T00:53:08.935Z,20.14
2022-07-27T00:55:40.394Z,20.18
2022-07-27T00:58:09.922Z,20.19
2022-07-27T01:00:39.150Z,20.12
2022-07-27T01:03:09.468Z,20.12
2022-07-27T01:05:42.725Z,20.06
2022-07-27T01:08:14.778Z,20.01
2022-07-27T01:10:48.069Z,19.90
2022-07-27T01:13:19.557Z,19.86
2022-07-27T01:15:50.489Z,19.86
2022-07-27T01:18:34.201Z,19.82
2022-07-27T01:21:13.644Z,19.76
2022-07-27T01:23:48.247Z,19.60
2022-07-27T01:26:19.643Z,19.74
2022-07-27T01:28:51.462Z,19.76
2022-07-27T01:31:20.816Z,19.76
2022-07-27T01:33:53.219Z,19.80
2022-07-27T01:36:23.739Z,19.81
2022-07-27T01:38:56.363Z,19.82
2022-07-27T01:41:28.054Z,20.05
2022-07-27T01:43:58.182Z,19.82
2022-07-27T01:46:27.765Z,19.85
2022-07-27T01:48:59.123Z,19.85
2022-07-27T01:51:30.617Z,19.82
2022-07-27T01:54:02.103Z,19.79
2022-07-27T01:56:31.423Z,19.84
2022-07-27T01:59:02.966Z,19.87
2022-07-27T02:01:34.270Z,19.93
2022-07-27T02:04:06.184Z,19.98
2022-07-27T02:06:34.567Z,20.02
2022-07-27T02:09:04.375Z,20.05
2022-07-27T02:11:49.772Z,20.07
2022-07-27T02:14:18.019Z,20.09
2022-07-27T02:16:49.991Z,20.07
2022-07-27T02:19:19.226Z,20.09
2022-07-27T02:21:47.150Z,20.11
2022-07-27T02:24:16.482Z,20.09
2022-07-27T02:26:44.587Z,20.12
2022-07-27T02:29:13.673Z,20.08
2022-07-27T02:31:41.915Z,20.08
2022-07-27T02:34:10.508Z,20.02
2022-07-27T02:36:38.539Z,20.05
2022-07-27T02:39:06.775Z,19.89
2022-07-27T02:41:36.141Z,19.92
2022-07-27T02:44:04.260Z,19.88
2022-07-27T02:46:32.253Z,19.90
2022-07-27T02:49:00.557Z,19.93
2022-07-27T02:51:28.580Z,19.89
2022-07-27T02:53:56.521Z,19.80
2022-07-27T02:56:26.606Z,19.66
2022-07-27T02:58:56.648Z,19.44
2022-07-27T03:01:24.845Z,19.44
2022-07-27T03:03:53.066Z,19.50
2022-07-27T03:06:21.072Z,19.52
2022-07-27T03:08:49.202Z,19.57
2022-07-27T03:11:17.156Z,19.52
2022-07-27T03:13:45.244Z,19.53
2022-07-27T03:16:15.186Z,19.57
2022-07-27T03:18:43.474Z,19.54
2022-07-27T03:21:11.533Z,19.53
2022-07-27T03:23:40.500Z,19.54
2022-07-27T03:26:08.707Z,19.61
2022-07-27T03:28:36.949Z,19.61
2022-07-27T03:31:05.014Z,19.63
2022-07-27T03:33:36.256Z,19.60
2022-07-27T03:36:05.529Z,19.63
2022-07-27T03:38:33.482Z,19.62
2022-07-27T03:41:01.483Z,19.61
2022-07-27T03:43:29.652Z,19.63
2022-07-27T03:45:57.885Z,19.65
2022-07-27T03:48:27.260Z,19.66
2022-07-27T03:50:56.685Z,19.65
2022-07-27T03:53:24.743Z,19.62
2022-07-27T03:55:52.966Z,19.67
2022-07-27T03:58:23.246Z,19.54
2022-07-27T04:00:51.568Z,19.53
2022-07-27T04:03:19.809Z,19.52
2022-07-27T04:05:47.760Z,19.53
2022-07-27T04:08:21.861Z,19.54
2022-07-27T04:10:50.438Z,19.50
2022-07-27T04:13:22.368Z,19.52
2022-07-27T04:15:52.886Z,19.56
2022-07-27T04:18:23.154Z,19.63
2022-07-27T04:20:53.281Z,19.66
2022-07-27T04:23:25.271Z,19.64
2022-07-27T04:25:56.449Z,19.62
2022-07-27T04:28:27.316Z,19.63
2022-07-27T04:30:58.113Z,19.54
2022-07-27T04:33:27.239Z,19.49
2022-07-27T04:35:57.044Z,19.52
2022-07-27T04:38:28.545Z,19.53
2022-07-27T04:40:59.577Z,19.53
2022-07-27T04:43:29.928Z,19.51
2022-07-27T04:46:00.485Z,19.43
2022-07-27T04:48:31.858Z,19.32
2022-07-27T04:51:02.603Z,19.22
2022-07-27T04:53:36.678Z,19.07
2022-07-27T04:56:26.629Z,19.01
2022-07-27T04:58:58.035Z,18.86
2022-07-27T05:01:33.160Z,18.78
2022-07-27T05:04:05.678Z,18.59
2022-07-27T05:06:34.314Z,18.56
2022-07-27T05:09:04.277Z,18.60
2022-07-27T05:11:34.508Z,18.63
2022-07-27T05:14:03.934Z,18.62
2022-07-27T05:16:31.982Z,18.45
2022-07-27T05:19:00.287Z,18.44
2022-07-27T05:21:29.342Z,18.32
2022-07-27T05:23:57.201Z,18.42
2022-07-27T05:26:26.807Z,18.43
2022-07-27T05:28:54.802Z,18.50
2022-07-27T05:31:22.864Z,18.57
2022-07-27T05:33:58.107Z,18.65
2022-07-27T05:36:26.688Z,18.68
2022-07-27T05:38:56.503Z,18.53
2022-07-27T05:41:28.969Z,18.68
2022-07-27T05:43:59.878Z,18.80
2022-07-27T05:46:38.450Z,18.90
2022-07-27T05:49:09.020Z,18.77
2022-07-27T05:51:38.898Z,18.78
2022-07-27T05:54:09.894Z,18.87
2022-07-27T05:56:39.906Z,18.95
2022-07-27T05:59:09.474Z,19.04
2022-07-27T06:01:40.886Z,19.21
2022-07-27T06:04:10.638Z,19.30
2022-07-27T06:07:01.307Z,19.35
2022-07-27T06:09:29.593Z,19.31
2022-07-27T06:12:10.519Z,19.33
2022-07-27T06:14:38.854Z,19.31
2022-07-27T06:17:07.740Z,19.41
2022-07-27T06:19:39.623Z,19.44
2022-07-27T06:22:08.386Z,19.33
2022-07-27T06:24:36.713Z,19.35
2022-07-27T06:27:08.497Z,19.27
2022-07-27T06:29:40.136Z,19.26
2022-07-27T06:32:11.550Z,19.31
2022-07-27T06:34:44.590Z,19.41
2022-07-27T06:37:19.592Z,19.21
2022-07-27T06:39:51.013Z,18.99
2022-07-27T06:42:25.040Z,19.09
2022-07-27T06:44:55.472Z,19.12
2022-07-27T06:47:28.839Z,19.26
2022-07-27T06:50:00.162Z,19.51
2022-07-27T06:52:31.982Z,19.34
2022-07-27T06:55:04.147Z,19.31
2022-07-27T06:57:35.624Z,19.41
2022-07-27T07:00:07.450Z,19.43
2022-07-27T07:02:38.623Z,19.27
2022-07-27T07:05:10.663Z,19.55
2022-07-27T07:07:39.625Z,19.59
2022-07-27T07:10:09.138Z,19.57
2022-07-27T07:12:40.887Z,19.61
2022-07-27T07:15:11.161Z,19.60
2022-07-27T07:17:42.394Z,19.64
2022-07-27T07:20:13.673Z,19.71
2022-07-27T07:22:42.822Z,19.77
2022-07-27T07:25:13.479Z,19.73
2022-07-27T07:27:47.180Z,19.55
2022-07-27T07:30:19.722Z,19.52
2022-07-27T07:32:51.470Z,19.55
2022-07-27T07:35:22.048Z,19.60
2022-07-27T07:37:53.623Z,19.63
2022-07-27T07:43:17.145Z,19.62
2022-07-27T07:45:51.581Z,19.68
2022-07-27T07:48:23.228Z,19.60
2022-07-27T07:50:54.535Z,19.47
2022-07-27T07:53:26.694Z,19.60
2022-07-27T07:55:57.949Z,19.24
2022-07-27T07:58:30.286Z,19.01
2022-07-27T08:00:59.768Z,19.08
2022-07-27T08:03:29.994Z,19.07
2022-07-27T08:05:58.675Z,19.02
2022-07-27T08:08:27.849Z,18.99
2022-07-27T08:10:56.202Z,18.91
2022-07-27T08:13:24.458Z,18.92
2022-07-27T08:15:54.701Z,18.88
2022-07-27T08:18:22.846Z,18.78
2022-07-27T08:20:52.537Z,18.76
2022-07-27T08:23:20.996Z,18.93
2022-07-27T08:25:49.433Z,18.97
2022-07-27T08:28:17.605Z,19.10
2022-07-27T08:30:46.550Z,19.17
2022-07-27T08:33:18.012Z,19.12
2022-07-27T08:35:50.171Z,19.17
2022-07-27T08:38:21.468Z,19.33
2022-07-27T08:40:51.936Z,19.49
2022-07-27T08:43:25.199Z,19.58
2022-07-27T08:45:57.045Z,19.73
2022-07-27T08:48:30.847Z,19.85
2022-07-27T08:51:00.185Z,20.00
2022-07-27T08:53:52.212Z,20.14
2022-07-27T08:56:22.695Z,20.25
2022-07-27T08:58:52.720Z,20.28
2022-07-27T09:01:24.016Z,20.29
2022-07-27T09:03:56.436Z,20.34
2022-07-27T09:06:46.060Z,20.35
2022-07-27T09:09:23.039Z,20.36
2022-07-27T09:12:06.572Z,20.47
2022-07-27T09:14:37.203Z,20.47
2022-07-27T09:20:18.613Z,20.46
2022-07-27T09:22:52.722Z,20.42
2022-07-27T09:25:38.689Z,20.40
2022-07-27T09:28:12.503Z,20.44
2022-07-27T09:30:43.711Z,20.29
2022-07-27T09:33:12.154Z,20.38
2022-07-27T09:35:41.652Z,20.39
2022-07-27T09:38:20.453Z,20.38
2022-07-27T09:40:51.036Z,20.41
2022-07-27T09:44:12.283Z,20.30
2022-07-27T09:46:08.313Z,20.30
2022-07-27T09:48:37.239Z,20.36
2022-07-27T09:51:55.963Z,20.24
2022-07-27T09:54:00.017Z,20.46
2022-07-27T09:56:30.474Z,20.52
2022-07-27T09:59:00.128Z,20.60
2022-07-27T10:01:31.144Z,20.63
2022-07-27T10:04:03.521Z,20.68
2022-07-27T10:06:53.487Z,20.73
2022-07-27T10:09:22.176Z,20.71
2022-07-27T10:11:50.665Z,20.61
2022-07-27T10:14:20.886Z,20.56
2022-07-27T10:16:53.196Z,20.49
2022-07-27T10:19:29.052Z,20.46
2022-07-27T10:21:58.449Z,20.53
2022-07-27T10:24:29.511Z,20.58
2022-07-27T10:27:20.195Z,20.58
2022-07-27T10:29:52.432Z,20.42
2022-07-27T10:32:28.286Z,20.43
2022-07-27T10:34:59.334Z,20.58
2022-07-27T10:37:32.782Z,20.74
2022-07-27T10:40:20.764Z,20.91
2022-07-27T10:42:54.471Z,20.89
2022-07-27T10:45:27.820Z,20.84
2022-07-27T10:48:47.517Z,21.02
2022-07-27T10:51:36.851Z,21.03
2022-07-27T10:54:22.982Z,21.08
2022-07-27T10:56:55.668Z,21.15
2022-07-27T11:00:08.551Z,21.22
2022-07-27T11:02:41.859Z,21.26
2022-07-27T11:05:53.918Z,21.22
2022-07-27T11:08:47.474Z,21.12
2022-07-27T11:10:49.872Z,21.14
2022-07-27T11:13:19.880Z,21.18
2022-07-27T11:15:56.028Z,21.24
2022-07-27T11:21:16.296Z,21.07
2022-07-27T11:23:51.409Z,20.95
2022-07-27T11:26:22.115Z,21.02
2022-07-27T11:28:51.110Z,20.95
2022-07-27T11:31:38.672Z,20.89
2022-07-27T11:34:09.937Z,21.03
2022-07-27T11:36:41.204Z,20.96
2022-07-27T11:39:14.977Z,21.05
2022-07-27T11:42:08.846Z,21.03
2022-07-27T11:44:33.808Z,20.95
2022-07-27T11:47:02.884Z,20.91
2022-07-27T11:49:32.662Z,20.92
2022-07-27T11:52:02.739Z,21.07
2022-07-27T11:54:32.635Z,21.07
2022-07-27T11:57:03.513Z,21.23
2022-07-27T11:59:32.635Z,21.22
2022-07-27T12:02:02.938Z,21.29
2022-07-27T12:04:33.007Z,21.11
2022-07-27T12:07:08.177Z,21.13
2022-07-27T12:09:39.297Z,21.13
2022-07-27T12:12:17.242Z,21.30
2022-07-27T12:14:51.903Z,21.37
2022-07-27T12:17:32.357Z,21.49
2022-07-27T12:20:07.106Z,21.49
2022-07-27T12:22:39.982Z,21.40
2022-07-27T12:25:16.091Z,21.40
2022-07-27T12:27:59.953Z,21.49
2022-07-27T12:30:33.605Z,21.16
2022-07-27T12:33:05.253Z,21.19
2022-07-27T12:35:45.899Z,21.22
2022-07-27T12:38:16.382Z,21.41
2022-07-27T12:40:47.238Z,21.49
2022-07-27T12:43:21.757Z,21.53
2022-07-27T12:45:51.988Z,21.57
2022-07-27T12:48:22.755Z,21.61
2022-07-27T12:50:59.935Z,21.77
2022-07-27T12:53:28.198Z,21.71
2022-07-27T12:55:59.464Z,21.77
2022-07-27T12:58:30.702Z,22.07
2022-07-27T13:01:00.849Z,22.22
2022-07-27T13:03:29.952Z,22.11
2022-07-27T13:05:58.151Z,22.00
2022-07-27T13:08:26.376Z,22.05
2022-07-27T13:10:54.473Z,22.08
2022-07-27T13:13:24.662Z,21.97
2022-07-27T13:15:54.370Z,21.99
2022-07-27T13:18:23.997Z,22.00
2022-07-27T13:20:52.898Z,21.95
2022-07-27T13:23:21.607Z,22.03
2022-07-27T13:25:49.923Z,22.12
2022-07-27T13:28:18.048Z,22.06
2022-07-27T13:30:46.280Z,21.93
2022-07-27T13:33:15.811Z,22.03
2022-07-27T13:35:43.890Z,22.08
2022-07-27T13:38:16.604Z,22.09
2022-07-27T13:40:45.130Z,22.16
2022-07-27T13:43:13.289Z,21.97
2022-07-27T13:45:43.265Z,21.99
2022-07-27T13:48:13.188Z,21.98
2022-07-27T13:50:43.046Z,21.89
2022-07-27T13:53:15.132Z,21.84
2022-07-27T13:55:44.387Z,21.82
2022-07-27T13:58:12.996Z,21.91
2022-07-27T14:00:41.974Z,21.93
2022-07-27T14:03:11.454Z,21.98
2022-07-27T14:05:49.252Z,22.09
2022-07-27T14:08:19.207Z,22.05
2022-07-27T14:10:47.308Z,22.16
2022-07-27T14:13:17.619Z,22.32
2022-07-27T14:15:54.137Z,22.44
2022-07-27T14:18:25.621Z,22.45
2022-07-27T14:20:55.716Z,22.56
2022-07-27T14:23:26.098Z,22.80
2022-07-27T14:25:55.529Z,22.94
2022-07-27T14:28:24.439Z,22.87
2022-07-27T14:30:53.524Z,22.84
2022-07-27T14:33:21.621Z,22.81
2022-07-27T14:35:49.942Z,22.87
2022-07-27T14:38:26.986Z,22.80
2022-07-27T14:40:59.285Z,22.88
2022-07-27T14:43:27.976Z,22.97
2022-07-27T14:45:55.899Z,23.07
2022-07-27T14:48:42.214Z,23.21
2022-07-27T14:51:12.681Z,23.34
2022-07-27T14:53:42.414Z,23.39
2022-07-27T14:56:10.467Z,23.42
2022-07-27T14:58:38.565Z,23.66
2022-07-27T15:01:06.926Z,23.65
2022-07-27T15:03:35.175Z,23.57
2022-07-27T15:06:03.439Z,23.18
2022-07-27T15:08:31.786Z,23.16
2022-07-27T15:11:01.064Z,23.39
2022-07-27T15:13:29.007Z,23.53
2022-07-27T15:15:58.280Z,23.64
2022-07-27T15:18:26.489Z,23.51
2022-07-27T15:20:54.440Z,23.52
2022-07-27T15:23:23.339Z,23.67
2022-07-27T15:25:52.024Z,23.73
2022-07-27T15:28:21.465Z,23.72
2022-07-27T15:30:49.864Z,23.64
2022-07-27T15:33:18.175Z,23.54
2022-07-27T15:35:46.181Z,23.63
2022-07-27T15:38:16.236Z,23.58
2022-07-27T15:40:44.269Z,23.60
2022-07-27T15:43:15.460Z,23.45
2022-07-27T15:45:47.709Z,23.50
2022-07-27T15:48:17.642Z,23.48
2022-07-27T15:50:48.513Z,23.44
2022-07-27T15:53:27.454Z,23.48
2022-07-27T15:55:56.815Z,23.29
2022-07-27T15:58:25.459Z,23.21
2022-07-27T16:00:57.702Z,23.08
2022-07-27T16:03:27.292Z,23.02
2022-07-27T16:05:56.696Z,22.96
2022-07-27T16:08:27.239Z,23.01
2022-07-27T16:10:55.604Z,23.17
2022-07-27T16:13:23.676Z,23.22
2022-07-27T16:16:09.646Z,23.28
2022-07-27T16:18:40.247Z,23.25
2022-07-27T16:21:10.194Z,23.37
2022-07-27T16:23:41.201Z,23.39
2022-07-27T16:26:14.263Z,23.42
2022-07-27T16:28:48.155Z,23.44
2022-07-27T16:31:20.555Z,23.38
2022-07-27T16:33:55.168Z,23.49
2022-07-27T16:36:24.239Z,23.61
2022-07-27T16:38:53.740Z,23.65
2022-07-27T16:41:23.625Z,23.69
2022-07-27T16:43:53.114Z,23.73
2022-07-27T16:46:23.167Z,23.75
2022-07-27T16:48:54.731Z,23.77
2022-07-27T16:51:25.000Z,23.78
2022-07-27T16:53:55.145Z,23.87
2022-07-27T16:56:26.194Z,23.84
2022-07-27T16:58:57.700Z,23.88
2022-07-27T17:01:27.345Z,23.81
2022-07-27T17:04:02.278Z,23.70
2022-07-27T17:06:32.455Z,23.72
2022-07-27T17:09:01.194Z,23.76
2022-07-27T17:11:29.584Z,23.68
2022-07-27T17:13:59.349Z,23.60
2022-07-27T17:16:29.229Z,23.49
2022-07-27T17:18:58.693Z,23.48
2022-07-27T17:21:26.885Z,23.47
2022-07-27T17:23:56.113Z,23.49
2022-07-27T17:26:24.875Z,23.35
2022-07-27T17:28:53.871Z,23.29
2022-07-27T17:31:22.754Z,23.13
2022-07-27T17:33:52.062Z,23.02
2022-07-27T17:36:22.256Z,22.95
2022-07-27T17:38:53.859Z,22.84
2022-07-27T17:41:24.836Z,22.80
2022-07-27T17:43:54.034Z,22.81
2022-07-27T17:46:24.753Z,22.78
2022-07-27T17:48:53.341Z,22.76
2022-07-27T17:51:25.440Z,22.75
2022-07-27T17:53:55.642Z,22.81
2022-07-27T17:56:23.740Z,22.79
2022-07-27T17:58:52.186Z,22.70
2022-07-27T18:01:46.407Z,22.62
2022-07-27T18:04:08.767Z,22.76
2022-07-27T18:06:38.712Z,22.62
2022-07-27T18:09:08.784Z,22.59
2022-07-27T18:11:38.787Z,22.55
2022-07-27T18:14:09.818Z,22.60
2022-07-27T18:16:41.488Z,22.60
2022-07-27T18:19:13.618Z,22.71
2022-07-27T18:21:44.098Z,22.63
2022-07-27T18:24:12.725Z,22.60
2022-07-27T18:26:42.633Z,22.58
2022-07-27T18:29:14.231Z,22.55
2022-07-27T18:31:44.041Z,22.53
2022-07-27T18:34:17.512Z,22.57
2022-07-27T18:36:47.923Z,22.51
2022-07-27T18:39:18.379Z,22.54
2022-07-27T18:41:47.753Z,22.46
2022-07-27T18:44:16.035Z,22.44
2022-07-27T18:46:44.333Z,22.53
2022-07-27T18:49:18.315Z,22.58
2022-07-27T18:51:48.841Z,22.62
2022-07-27T18:54:18.610Z,22.68
2022-07-27T18:56:48.377Z,22.66
2022-07-27T18:59:19.626Z,22.64
2022-07-27T19:01:49.419Z,22.48
2022-07-27T19:04:18.147Z,22.52
2022-07-27T19:06:50.828Z,22.44
2022-07-27T19:09:20.303Z,22.45
2022-07-27T19:11:48.655Z,22.43
2022-07-27T19:14:18.475Z,22.42
2022-07-27T19:16:47.164Z,22.38
2022-07-27T19:19:20.670Z,22.29
2022-07-27T19:21:52.280Z,22.21
2022-07-27T19:24:20.843Z,22.18
2022-07-27T19:26:49.001Z,22.13
2022-07-27T19:29:19.973Z,22.04
2022-07-27T19:31:48.786Z,22.01
2022-07-27T19:34:17.156Z,21.93
2022-07-27T19:36:45.743Z,21.91
2022-07-27T19:39:16.054Z,21.85
2022-07-27T19:41:53.246Z,21.87
2022-07-27T19:44:22.544Z,21.88
2022-07-27T19:46:50.913Z,21.87
2022-07-27T19:49:19.272Z,21.92
2022-07-27T19:51:47.703Z,21.90
2022-07-27T19:54:17.430Z,21.87
2022-07-27T19:56:52.380Z,21.88
2022-07-27T19:59:20.826Z,21.81
2022-07-27T20:01:49.185Z,21.80
2022-07-27T20:04:17.413Z,21.76
2022-07-27T20:06:45.944Z,21.72
2022-07-27T20:09:14.527Z,21.78
2022-07-27T20:11:44.803Z,21.76
2022-07-27T20:14:12.944Z,21.79
2022-07-27T20:16:41.956Z,21.84
2022-07-27T20:19:10.231Z,21.83
2022-07-27T20:21:40.311Z,21.86
2022-07-27T20:24:09.426Z,21.79
2022-07-27T20:26:37.411Z,21.80
2022-07-27T20:29:07.704Z,21.79
2022-07-27T20:31:35.697Z,21.81
2022-07-27T20:34:04.154Z,21.81
2022-07-27T20:36:32.689Z,21.58
2022-07-27T20:39:04.901Z,21.67
2022-07-27T20:41:35.536Z,21.72
2022-07-27T20:44:03.506Z,21.73
2022-07-27T20:46:32.920Z,21.67
2022-07-27T20:49:01.305Z,21.65
2022-07-27T20:51:29.306Z,21.56
2022-07-27T20:53:58.418Z,21.45
2022-07-27T20:56:26.995Z,21.56
2022-07-27T20:58:54.926Z,21.53
2022-07-27T21:01:22.958Z,21.49
2022-07-27T21:03:56.363Z,21.47
2022-07-27T21:06:24.445Z,21.43
2022-07-27T21:08:52.499Z,21.42
2022-07-27T21:11:21.347Z,21.48
2022-07-27T21:13:49.407Z,21.47
2022-07-27T21:16:17.470Z,21.40
2022-07-27T21:18:45.594Z,21.37
2022-07-27T21:21:15.146Z,21.30
2022-07-27T21:24:00.523Z,21.34
2022-07-27T21:26:31.949Z,21.35
2022-07-27T21:29:00.095Z,21.35
2022-07-27T21:31:30.156Z,21.28
2022-07-27T21:33:58.347Z,21.31
2022-07-27T21:36:29.288Z,21.33
2022-07-27T21:38:57.629Z,21.20
2022-07-27T21:41:25.891Z,21.15
2022-07-27T21:43:54.038Z,21.24
2022-07-27T21:46:22.277Z,21.26
2022-07-27T21:48:51.027Z,21.26
2022-07-27T21:51:19.619Z,21.25
2022-07-27T21:53:49.913Z,21.22
2022-07-27T21:56:18.529Z,21.15
2022-07-27T21:58:48.000Z,21.15
2022-07-27T22:01:17.476Z,21.16
2022-07-27T22:03:45.915Z,21.17
2022-07-27T22:06:13.967Z,21.18
2022-07-27T22:08:42.061Z,21.12
2022-07-27T22:11:11.510Z,21.13
2022-07-27T22:13:39.401Z,21.10
2022-07-27T22:16:08.978Z,20.96
2022-07-27T22:18:37.269Z,21.02
2022-07-27T22:21:05.598Z,20.99
2022-07-27T22:23:33.706Z,20.95
2022-07-27T22:26:01.796Z,20.92
2022-07-27T22:28:31.259Z,20.93
2022-07-27T22:31:21.393Z,20.93
2022-07-27T22:33:47.885Z,20.91
2022-07-27T22:36:17.502Z,20.96
2022-07-27T22:38:45.647Z,20.94
2022-07-27T22:41:13.917Z,20.90
2022-07-27T22:43:43.257Z,20.86
2022-07-27T22:46:11.368Z,20.87
2022-07-27T22:48:39.574Z,20.80
2022-07-27T22:51:08.342Z,20.82
2022-07-27T22:53:38.487Z,20.86
2022-07-27T22:56:06.751Z,20.87
2022-07-27T22:58:34.865Z,20.89
2022-07-27T23:01:04.456Z,20.87
2022-07-27T23:03:32.914Z,20.96
2022-07-27T23:06:01.051Z,21.00
2022-07-27T23:08:29.173Z,20.97
2022-07-27T23:10:57.239Z,20.87
2022-07-27T23:13:25.290Z,20.78
2022-07-27T23:16:01.627Z,20.74
2022-07-27T23:18:31.055Z,20.57
2022-07-27T23:20:59.476Z,20.54
2022-07-27T23:23:27.822Z,20.45
2022-07-27T23:25:55.783Z,20.53
2022-07-27T23:28:27.752Z,20.46
2022-07-27T23:30:55.778Z,20.33
2022-07-27T23:33:23.827Z,20.31
2022-07-27T23:35:53.399Z,20.32
2022-07-27T23:38:21.446Z,20.33
2022-07-27T23:40:50.641Z,20.30
2022-07-27T23:43:18.605Z,20.29
2022-07-27T23:45:47.918Z,20.32
2022-07-27T23:48:16.869Z,20.27
2022-07-27T23:50:44.967Z,20.27
2022-07-27T23:53:18.093Z,20.17
2022-07-27T23:55:46.285Z,20.26
2022-07-27T23:58:14.269Z,20.35
